Time;durP1;ratioP1;P1;durP2;ratioP2;P2;SDS_P1;SDS_P2;PMS_P1;PMS_P2;Temp;Humidity;BMP_temperature;BMP_pressure;BME280_temperature;BME280_humidity;BME280_pressure;Samples;Min_cycle;Max_cycle;Signal;HPM_P1;HPM_P2
2024/01/17 00:00:45;;;;;;;14.23;4.40;;;-1.90;99.90;;;-0.82;100.00;99459.91;4952227;28;20129;-75
2024/01/17 00:03:11;;;;;;;9.60;4.10;;;-1.90;99.90;;;-0.68;100.00;99469.06;4946595;28;20031;-76
2024/01/17 00:05:37;;;;;;;11.98;4.55;;;-1.80;99.90;;;-0.68;100.00;99447.66;4947106;28;20393;-75
2024/01/17 00:08:03;;;;;;;8.68;4.38;;;-1.80;99.90;;;-0.77;100.00;99457.59;4946102;28;20602;-76
2024/01/17 00:10:29;;;;;;;12.23;4.38;;;-1.90;99.90;;;-0.70;100.00;99452.34;4938419;28;20475;-76
2024/01/17 00:12:54;;;;;;;10.13;4.60;;;-1.90;99.90;;;-0.68;100.00;99442.28;4946731;29;20078;-76
2024/01/17 00:15:20;;;;;;;9.95;4.50;;;-1.90;99.90;;;-0.66;100.00;99447.50;4939310;29;20035;-76
2024/01/17 00:17:49;;;;;;;10.52;4.20;;;-1.90;99.90;;;-0.76;100.00;99445.00;4938603;28;20490;-76
2024/01/17 00:20:15;;;;;;;11.07;4.43;;;-1.90;99.90;;;-0.90;100.00;99435.84;4937222;29;20102;-75
2024/01/17 00:22:41;;;;;;;9.55;4.07;;;-1.90;99.90;;;-0.81;100.00;99410.69;4941524;29;20115;-76
2024/01/17 00:25:08;;;;;;;7.63;3.88;;;-1.80;99.90;;;-0.76;100.00;99418.22;4941409;29;20094;-75
2024/01/17 00:27:36;;;;;;;8.30;3.90;;;-1.80;99.90;;;-0.68;100.00;99414.69;4939388;29;20047;-75
2024/01/17 00:30:03;;;;;;;10.13;3.85;;;-1.80;99.90;;;-0.89;100.00;99397.34;4950863;28;20431;-75
2024/01/17 00:32:29;;;;;;;9.98;3.95;;;-1.70;99.90;;;-0.69;100.00;99400.44;4936099;29;20039;-75
2024/01/17 00:34:54;;;;;;;14.25;4.78;;;-1.70;99.90;;;-0.56;100.00;99397.19;4954062;28;20035;-74
2024/01/17 00:37:20;;;;;;;8.38;3.53;;;-1.70;99.90;;;-0.80;100.00;99380.22;4950189;29;20046;-75
2024/01/17 00:39:46;;;;;;;11.60;3.85;;;-1.80;99.90;;;-0.83;100.00;99380.56;4935884;29;20035;-75
2024/01/17 00:42:12;;;;;;;10.23;4.25;;;-1.70;99.90;;;-0.69;100.00;99396.94;4950611;28;20396;-75
2024/01/17 00:44:39;;;;;;;13.77;3.97;;;-1.70;99.90;;;-0.78;100.00;99391.63;4956737;28;20032;-75
2024/01/17 00:47:05;;;;;;;8.30;4.20;;;-1.80;99.90;;;-0.83;100.00;99379.75;4943287;29;20129;-74
2024/01/17 00:49:31;;;;;;;9.77;3.75;;;-1.70;99.90;;;-0.91;100.00;99388.66;4939267;28;20039;-75
2024/01/17 00:51:57;;;;;;;10.52;4.28;;;-1.80;99.90;;;-0.85;100.00;99379.91;4944266;29;20040;-75
2024/01/17 00:54:23;;;;;;;13.30;4.20;;;-1.80;99.90;;;-0.81;100.00;99357.13;4934864;29;20134;-75
2024/01/17 00:56:48;;;;;;;9.82;3.80;;;-1.70;99.90;;;-0.86;100.00;99367.53;4935768;29;20099;-75
2024/01/17 00:59:14;;;;;;;9.15;4.38;;;-1.80;99.90;;;-0.92;100.00;99355.69;4963921;28;20035;-75
2024/01/17 01:01:40;;;;;;;10.85;4.20;;;-1.80;99.90;;;-0.70;100.00;99368.50;4940627;28;20399;-75
2024/01/17 01:04:08;;;;;;;11.50;4.20;;;-1.80;99.90;;;-0.68;100.00;99374.50;4957490;28;20046;-75
2024/01/17 01:06:33;;;;;;;;;;;-1.70;99.90;;;-0.73;100.00;99381.22;4941371;29;20044;-75
2024/01/17 01:08:59;;;;;;;10.73;4.05;;;-1.70;99.90;;;-0.79;100.00;99375.72;4941129;28;20397;-75
2024/01/17 01:11:30;;;;;;;12.13;4.13;;;-1.70;99.90;;;-0.59;100.00;99366.25;4935766;29;20496;-76
2024/01/17 01:13:55;;;;;;;15.77;4.15;;;-1.70;99.90;;;-0.70;100.00;99352.41;4939805;29;20039;-75
2024/01/17 01:16:21;;;;;;;9.57;4.05;;;-1.70;99.90;;;-0.75;100.00;99334.19;4935223;29;20043;-76
2024/01/17 01:18:47;;;;;;;9.45;3.78;;;-1.70;99.90;;;-0.73;100.00;99348.22;4947911;29;20098;-75
2024/01/17 01:21:14;;;;;;;8.70;3.83;;;-1.60;99.90;;;-0.64;100.00;99341.00;4946912;28;20045;-76
2024/01/17 01:23:40;;;;;;;11.73;3.72;;;-1.60;99.90;;;-0.73;100.00;99350.91;4936280;28;20088;-76
2024/01/17 01:26:06;;;;;;;8.82;3.70;;;-1.60;99.90;;;-0.54;100.00;99341.59;4937277;29;20381;-76
2024/01/17 01:28:31;;;;;;;9.60;4.47;;;-1.50;99.90;;;-0.66;100.00;99319.75;4953188;28;20092;-76
2024/01/17 01:30:57;;;;;;;10.98;4.10;;;-1.50;99.90;;;-0.48;100.00;99340.06;4935346;29;20087;-76
2024/01/17 01:33:23;;;;;;;10.55;4.15;;;-1.50;99.90;;;-0.57;100.00;99325.06;4946864;29;20045;-76
2024/01/17 01:35:48;;;;;;;9.07;4.10;;;-1.50;99.90;;;-0.40;100.00;99331.97;4941865;29;20086;-76
2024/01/17 01:38:14;;;;;;;8.90;3.63;;;-1.50;99.90;;;-0.52;100.00;99320.00;4947034;29;20457;-76
2024/01/17 01:40:42;;;;;;;14.82;3.65;;;-1.50;99.90;;;-0.52;100.00;99320.00;4943981;29;20117;-76
2024/01/17 01:43:37;;;;;;;11.55;4.35;;;-1.50;99.90;;;-0.44;100.00;99319.94;4960662;28;20046;-76
2024/01/17 01:46:12;;;;;;;9.63;3.92;;;-1.60;99.90;;;-0.61;100.00;99311.16;4953853;28;20154;-76
2024/01/17 01:48:38;;;;;;;8.57;3.45;;;-1.60;99.90;;;-0.50;100.00;99324.19;4958404;28;20043;-76
2024/01/17 01:51:04;;;;;;;9.93;4.03;;;-1.60;99.90;;;-0.62;100.00;99329.09;4944990;29;20465;-76
2024/01/17 01:53:32;;;;;;;9.98;3.85;;;-1.70;99.90;;;-0.64;100.00;99330.28;4943284;28;20059;-76
2024/01/17 01:55:59;;;;;;;8.02;4.10;;;-1.80;99.90;;;-0.50;100.00;99324.19;4942380;29;20039;-76
2024/01/17 01:58:27;;;;;;;8.55;4.55;;;-1.80;99.90;;;-0.54;100.00;99330.06;4938667;29;20475;-76
2024/01/17 02:00:56;;;;;;;10.57;3.70;;;-1.90;99.90;;;-0.75;100.00;99318.97;4934844;28;20040;-75
2024/01/17 02:03:26;;;;;;;7.43;3.78;;;-1.90;99.90;;;-0.73;100.00;99321.44;4966896;28;20051;-76
2024/01/17 02:05:53;;;;;;;11.50;4.10;;;-1.90;99.90;;;-0.69;100.00;99322.75;4959347;28;20542;-75
2024/01/17 02:08:19;;;;;;;9.82;3.90;;;-1.90;99.90;;;-0.62;100.00;99314.84;4942326;29;20051;-76
2024/01/17 02:10:45;;;;;;;10.70;3.78;;;-1.90;99.90;;;-0.60;100.00;99304.78;4941006;28;20050;-75
2024/01/17 02:13:11;;;;;;;9.15;3.58;;;-2.10;99.90;;;-0.80;100.00;99299.88;4942722;29;20040;-75
2024/01/17 02:15:37;;;;;;;7.53;3.90;;;-2.10;99.90;;;-0.77;100.00;99299.56;4943825;29;20895;-75
2024/01/17 02:18:04;;;;;;;8.52;3.58;;;-2.10;99.90;;;-0.78;100.00;99295.22;4938079;29;20058;-75
2024/01/17 02:20:31;;;;;;;7.60;3.70;;;-2.00;99.90;;;-0.92;100.00;99274.50;4938537;29;20043;-76
2024/01/17 02:22:57;;;;;;;6.43;3.55;;;-2.10;99.90;;;-0.82;100.00;99287.69;4949054;29;20047;-75
2024/01/17 02:25:22;;;;;;;11.57;3.75;;;-2.10;99.90;;;-1.00;100.00;99274.56;4938378;28;20040;-75
2024/01/17 02:27:48;;;;;;;7.40;3.28;;;-2.20;99.90;;;-1.09;100.00;99268.41;4936974;29;20032;-75
2024/01/17 02:30:14;;;;;;;10.40;3.55;;;-2.10;99.90;;;-1.04;100.00;99272.25;4942640;29;20042;-75
2024/01/17 02:32:43;;;;;;;8.55;3.70;;;-2.20;99.90;;;-1.03;100.00;99270.38;4962142;28;20078;-75
2024/01/17 02:35:09;;;;;;;11.98;3.72;;;-2.20;99.90;;;-0.93;100.00;99278.19;4953077;29;20395;-74
2024/01/17 02:37:35;;;;;;;13.60;3.95;;;-2.20;99.90;;;-1.38;100.00;99260.00;4964519;28;20054;-75
2024/01/17 02:40:00;;;;;;;12.45;3.70;;;-2.30;99.90;;;-1.12;100.00;99274.13;4942263;28;20043;-75
2024/01/17 02:42:26;;;;;;;12.35;4.15;;;-2.40;99.90;;;-1.04;100.00;99261.53;4937508;29;20036;-75
2024/01/17 02:44:52;;;;;;;8.48;3.50;;;-2.40;99.90;;;-1.18;100.00;99248.88;4944267;28;20038;-75
2024/01/17 02:47:17;;;;;;;8.30;3.45;;;-2.40;99.90;;;-1.00;100.00;99242.44;4959313;28;20042;-76
2024/01/17 02:49:43;;;;;;;9.23;3.80;;;-2.50;99.90;;;-1.14;100.00;99244.03;4945311;28;20392;-75
2024/01/17 02:52:09;;;;;;;8.38;3.60;;;-2.40;99.90;;;-1.10;100.00;99235.44;4942233;29;20046;-75
2024/01/17 02:54:35;;;;;;;7.97;3.00;;;-2.50;99.90;;;-1.08;100.00;99254.84;4945080;28;20204;-75
2024/01/17 02:57:00;;;;;;;9.25;4.03;;;-2.50;99.90;;;-1.17;100.00;99250.53;4937673;29;20094;-75
2024/01/17 02:59:26;;;;;;;8.02;3.55;;;-2.50;99.90;;;-1.22;100.00;99251.06;4939510;29;20435;-75
2024/01/17 03:01:53;;;;;;;8.55;3.42;;;-2.50;99.90;;;-1.26;100.00;99251.59;4938142;28;20483;-75
2024/01/17 03:04:19;;;;;;;10.57;3.67;;;-2.50;99.90;;;-1.23;100.00;99257.41;4962053;28;20047;-75
2024/01/17 03:06:46;;;;;;;13.15;3.80;;;-2.50;99.90;;;-1.10;100.00;99251.50;4964496;28;20357;-75
2024/01/17 03:09:12;;;;;;;9.45;3.63;;;-2.50;99.90;;;-1.33;100.00;99246.09;4955564;28;20130;-75
2024/01/17 03:11:38;;;;;;;8.65;3.47;;;-2.50;99.90;;;-1.42;100.00;99231.91;4937742;29;20031;-75
2024/01/17 03:14:04;;;;;;;7.10;2.80;;;-2.50;99.90;;;-1.37;100.00;99226.88;4966924;28;20046;-75
2024/01/17 03:16:29;;;;;;;8.82;3.35;;;-2.50;99.90;;;-1.54;100.00;99211.91;4942756;28;20024;-75
2024/01/17 03:18:55;;;;;;;6.75;3.05;;;-2.40;99.90;;;-1.56;100.00;99203.22;4938231;28;20040;-75
2024/01/17 03:21:21;;;;;;;8.00;3.08;;;-2.40;99.90;;;-1.49;100.00;99204.19;4948331;28;20035;-75
2024/01/17 03:23:47;;;;;;;7.43;2.92;;;-2.50;99.90;;;-1.74;100.00;99182.91;4937124;29;20355;-75
2024/01/17 03:26:13;;;;;;;10.00;3.30;;;-2.50;99.90;;;-1.68;100.00;99192.06;4937592;29;20044;-75
2024/01/17 03:28:40;;;;;;;7.45;2.90;;;-2.50;99.90;;;-1.70;100.00;99178.03;4940441;29;20028;-75
2024/01/17 03:31:05;;;;;;;10.55;4.10;;;-2.60;99.90;;;-1.56;100.00;99176.47;4948731;28;20071;-75
2024/01/17 03:33:31;;;;;;;5.93;2.70;;;-2.60;99.90;;;-1.66;100.00;99157.97;4941421;28;20039;-75
2024/01/17 03:35:57;;;;;;;7.80;2.90;;;-2.60;99.90;;;-1.62;100.00;99149.41;4942741;29;20444;-75
2024/01/17 03:38:22;;;;;;;6.95;3.03;;;-2.50;99.90;;;-1.56;100.00;99137.19;4943847;28;20039;-75
2024/01/17 03:40:48;;;;;;;8.57;3.00;;;-2.60;99.90;;;-1.50;100.00;99122.28;4950990;28;20039;-74
2024/01/17 03:43:14;;;;;;;9.68;3.20;;;-2.60;99.90;;;-1.53;100.00;99114.59;4943387;29;20043;-75
2024/01/17 03:45:39;;;;;;;8.52;3.22;;;-2.60;99.90;;;-1.33;100.00;99121.19;4952060;28;20039;-75
2024/01/17 03:48:06;;;;;;;7.75;3.13;;;-2.70;99.90;;;-1.52;100.00;99109.06;4939886;29;20087;-75
2024/01/17 03:50:33;;;;;;;6.65;2.92;;;-2.70;99.90;;;-1.51;100.00;99104.56;4935344;28;20043;-75
2024/01/17 03:52:59;;;;;;;8.38;3.30;;;-2.70;99.90;;;-1.49;100.00;99097.19;4938225;29;20036;-76
2024/01/17 03:55:25;;;;;;;10.82;2.72;;;-2.70;99.90;;;-1.64;100.00;99103.28;4938368;29;20035;-75
2024/01/17 03:57:51;;;;;;;10.93;3.10;;;-2.70;99.90;;;-1.69;100.00;99092.28;4940444;29;20069;-75
2024/01/17 04:00:17;;;;;;;8.95;3.83;;;-2.60;99.90;;;-1.45;100.00;99093.16;4943470;28;20047;-76
2024/01/17 04:02:42;;;;;;;10.18;3.35;;;-2.60;99.90;;;-1.42;100.00;99087.44;4941978;28;20032;-75
2024/01/17 04:05:08;;;;;;;9.02;3.17;;;-2.70;99.90;;;-1.56;100.00;99080.19;4946638;28;20047;-75
2024/01/17 04:07:34;;;;;;;10.25;3.10;;;-2.70;99.90;;;-1.58;100.00;99085.69;4936295;29;20040;-75
2024/01/17 04:10:00;;;;;;;7.10;3.08;;;-2.70;99.90;;;-1.64;100.00;99065.81;4936179;28;20032;-75
2024/01/17 04:12:25;;;;;;;9.55;3.55;;;-2.70;99.90;;;-1.42;100.00;99068.72;4938000;29;20050;-75
2024/01/17 04:14:51;;;;;;;9.52;3.55;;;-2.70;99.90;;;-1.42;100.00;99058.00;4936579;29;20084;-75
2024/01/17 04:17:17;;;;;;;9.60;3.58;;;-2.70;99.90;;;-1.52;100.00;99071.59;4943101;29;20043;-75
2024/01/17 04:19:43;;;;;;;8.15;3.03;;;-2.60;99.90;;;-1.59;100.00;99078.69;4966040;28;20493;-75
2024/01/17 04:22:08;;;;;;;7.32;3.88;;;-2.50;99.90;;;-1.52;100.00;99066.25;4938547;29;20027;-75
2024/01/17 04:24:34;;;;;;;11.93;3.88;;;-2.50;99.90;;;-1.39;100.00;99065.69;4942743;29;20404;-75
2024/01/17 04:27:00;;;;;;;11.30;3.90;;;-2.50;99.90;;;-1.34;100.00;99062.47;4943129;29;20584;-75
2024/01/17 04:29:26;;;;;;;7.65;3.33;;;-2.50;99.90;;;-1.24;100.00;99067.59;4936005;28;20043;-75
2024/01/17 04:31:52;;;;;;;7.38;3.25;;;-2.50;99.90;;;-1.40;100.00;99064.00;4944628;29;20037;-75
2024/01/17 04:34:18;;;;;;;8.13;3.35;;;-2.60;99.90;;;-1.42;100.00;99059.88;4939040;28;20122;-75
2024/01/17 04:36:44;;;;;;;10.40;3.72;;;-2.50;99.90;;;-1.32;100.00;99052.41;4943029;28;20110;-75
2024/01/17 04:39:10;;;;;;;13.63;4.07;;;-2.50;99.90;;;-1.15;100.00;99045.09;4956815;28;20048;-74
2024/01/17 04:41:36;;;;;;;8.45;3.78;;;-2.50;99.90;;;-1.44;100.00;99019.91;4935577;29;20035;-75
2024/01/17 04:44:02;;;;;;;9.00;3.80;;;-2.40;99.90;;;-1.62;100.00;99044.28;4949506;29;20039;-75
2024/01/17 04:46:28;;;;;;;7.85;3.63;;;-2.40;99.90;;;-1.40;100.00;99031.09;4945504;28;20554;-76
2024/01/17 04:48:54;;;;;;;11.73;4.05;;;-2.50;99.90;;;-1.55;100.00;99031.84;4940552;29;20036;-76
2024/01/17 04:51:22;;;;;;;10.65;4.65;;;-2.50;99.90;;;-1.54;100.00;99036.19;4959603;28;20039;-76
2024/01/17 04:53:48;;;;;;;11.02;4.50;;;-2.50;99.90;;;-1.30;100.00;99034.34;4941291;29;20055;-76
2024/01/17 04:56:15;;;;;;;12.73;5.25;;;-2.40;99.90;;;-1.14;100.00;99029.88;4959877;28;20047;-76
2024/01/17 04:58:45;;;;;;;11.65;5.07;;;-2.50;99.90;;;-1.35;100.00;99039.41;4945684;28;20050;-76
2024/01/17 05:01:11;;;;;;;14.48;5.00;;;-2.50;99.90;;;-1.54;100.00;99038.03;4949018;28;20038;-76
2024/01/17 05:03:40;;;;;;;11.93;5.22;;;-2.60;99.90;;;-1.43;100.00;99034.13;4946740;28;20039;-76
2024/01/17 05:06:06;;;;;;;9.63;5.07;;;-2.60;99.90;;;-1.61;100.00;99030.69;4946659;28;20069;-76
2024/01/17 05:08:32;;;;;;;14.90;5.43;;;-2.60;99.90;;;-1.35;100.00;99029.53;4945457;28;20491;-76
2024/01/17 05:10:57;;;;;;;15.45;5.93;;;-2.60;99.90;;;-1.26;100.00;99026.81;4962781;28;20506;-76
2024/01/17 05:13:23;;;;;;;11.80;5.57;;;-2.60;99.90;;;-1.42;100.00;99022.41;4948838;28;20054;-76
2024/01/17 05:15:49;;;;;;;9.98;5.53;;;-2.60;99.90;;;-1.57;100.00;99020.50;4941027;29;20040;-76
2024/01/17 05:18:15;;;;;;;14.57;5.97;;;-2.50;99.90;;;-1.40;100.00;99023.06;4949540;28;20511;-76
2024/01/17 05:20:41;;;;;;;13.23;5.97;;;-2.60;99.90;;;-1.65;100.00;99026.72;4954169;28;20039;-76
2024/01/17 05:23:07;;;;;;;14.32;6.30;;;-2.50;99.90;;;-1.55;100.00;99012.31;4939604;29;20439;-76
2024/01/17 05:25:33;;;;;;;9.77;5.53;;;-2.50;99.90;;;-1.48;100.00;98989.16;4942618;28;20047;-77
2024/01/17 05:27:59;;;;;;;16.42;6.70;;;-2.50;99.90;;;-1.44;100.00;99001.16;4945930;28;20082;-76
2024/01/17 05:30:25;;;;;;;16.58;5.97;;;-2.40;99.90;;;-1.60;100.00;98994.09;4943833;29;20488;-77
2024/01/17 05:32:52;;;;;;;17.33;6.80;;;-2.40;99.90;;;-1.44;100.00;98990.47;4954276;28;20039;-77
2024/01/17 05:35:20;;;;;;;13.18;7.03;;;-2.50;99.90;;;-1.43;100.00;98992.13;4956458;28;20505;-77
2024/01/17 05:37:47;;;;;;;16.67;7.40;;;-2.50;99.90;;;-1.25;100.00;98986.47;4942441;29;20071;-77
2024/01/17 05:40:14;;;;;;;12.07;6.55;;;-2.50;99.90;;;-1.46;100.00;98963.06;4947244;28;20133;-77
2024/01/17 05:42:42;;;;;;;15.15;7.10;;;-2.50;99.90;;;-1.23;100.00;98971.06;4940346;29;20045;-76
2024/01/17 05:45:08;;;;;;;16.23;7.53;;;-2.50;99.90;;;-1.56;100.00;98959.81;4943515;28;20419;-77
2024/01/17 05:47:38;;;;;;;15.73;7.30;;;-2.50;99.90;;;-1.39;100.00;98957.84;4945383;28;20035;-77
2024/01/17 05:50:09;;;;;;;15.25;7.38;;;-2.50;99.90;;;-1.39;100.00;98969.34;4941893;28;20066;-77
2024/01/17 05:52:40;;;;;;;14.10;6.53;;;-2.60;99.90;;;-1.31;100.00;98969.31;4963263;28;20082;-77
2024/01/17 05:55:08;;;;;;;16.58;7.32;;;-2.60;99.90;;;-1.36;100.00;98957.47;4943574;28;20050;-77
2024/01/17 05:57:35;;;;;;;18.80;7.57;;;-2.70;99.90;;;-1.45;100.00;98948.69;4948217;28;20050;-77
2024/01/17 06:00:01;;;;;;;11.15;5.85;;;-2.70;99.90;;;-1.69;100.00;98942.50;4948381;28;20503;-76
2024/01/17 06:02:30;;;;;;;14.77;7.93;;;-2.70;99.90;;;-1.49;100.00;98936.69;4949580;28;20043;-77
2024/01/17 06:04:56;;;;;;;19.45;7.53;;;-2.70;99.90;;;-1.36;100.00;98936.06;4940042;29;20429;-77
2024/01/17 06:07:21;;;;;;;17.48;6.45;;;-2.70;99.90;;;-1.84;100.00;98929.09;4939113;28;20507;-78
2024/01/17 06:09:48;;;;;;;16.52;6.93;;;-2.70;99.90;;;-1.57;100.00;98926.06;4937134;29;20035;-78
2024/01/17 06:12:13;;;;;;;16.95;7.20;;;-2.60;99.90;;;-1.52;100.00;98896.91;4945244;29;20048;-78
2024/01/17 06:14:40;;;;;;;13.80;7.13;;;-2.50;99.90;;;-1.54;100.00;98901.63;4947660;28;20496;-77
2024/01/17 06:17:06;;;;;;;16.67;7.00;;;-2.50;99.90;;;-1.57;100.00;98910.00;4937466;28;20055;-77
2024/01/17 06:19:32;;;;;;;17.42;7.07;;;-2.50;99.90;;;-1.62;100.00;98883.78;4943086;29;20042;-80
2024/01/17 06:21:58;;;;;;;15.68;7.47;;;-2.50;99.90;;;-1.43;100.00;98887.78;4954331;29;20039;-79
2024/01/17 06:24:24;;;;;;;14.82;6.85;;;-2.50;99.90;;;-1.37;100.00;98897.75;4949763;28;20077;-79
2024/01/17 06:26:49;;;;;;;17.33;7.07;;;-2.50;99.90;;;-1.30;100.00;98887.16;4949253;29;20031;-79
2024/01/17 06:29:15;;;;;;;16.42;7.40;;;-2.50;99.90;;;-1.34;100.00;98902.75;4952836;29;20046;-81
2024/01/17 06:31:41;;;;;;;17.20;8.05;;;-2.50;99.90;;;-1.45;100.00;98887.16;4952345;28;20027;-81
2024/01/17 06:34:06;;;;;;;16.05;7.18;;;-2.50;99.90;;;-1.31;100.00;98891.69;4952193;29;20043;-79
2024/01/17 06:36:32;;;;;;;13.68;6.78;;;-2.50;99.90;;;-1.23;100.00;98895.31;4939192;28;20542;-79
2024/01/17 06:38:59;;;;;;;17.65;7.80;;;-2.40;99.90;;;-1.19;100.00;98870.69;4963498;28;20043;-79
2024/01/17 06:41:25;;;;;;;15.60;7.28;;;-2.50;99.90;;;-1.06;100.00;98879.91;4942656;28;20048;-79
2024/01/17 06:43:51;;;;;;;18.33;7.25;;;-2.50;99.90;;;-1.13;100.00;98871.75;4946251;29;20069;-78
2024/01/17 06:46:16;;;;;;;16.65;6.97;;;-2.50;99.90;;;-1.17;100.00;98860.63;4943001;29;20071;-79
2024/01/17 06:48:42;;;;;;;16.92;7.15;;;-2.60;99.90;;;-1.32;100.00;98863.28;4946124;29;20031;-78
2024/01/17 06:51:08;;;;;;;15.05;6.80;;;-2.60;99.90;;;-1.54;100.00;98862.31;4940475;28;20408;-78
2024/01/17 06:53:36;;;;;;;20.60;7.85;;;-2.60;99.90;;;-1.32;100.00;98857.94;4935783;29;20403;-77
2024/01/17 06:56:02;;;;;;;16.92;7.78;;;-2.60;99.90;;;-1.29;100.00;98863.94;4938131;29;20078;-78
2024/01/17 06:58:27;;;;;;;14.98;7.55;;;-2.70;99.90;;;-1.31;100.00;98851.56;4942373;28;20043;-81
2024/01/17 07:00:53;;;;;;;15.23;7.00;;;-2.80;99.90;;;-1.34;100.00;98865.28;4955630;28;20036;-76
2024/01/17 07:03:20;;;;;;;19.75;7.65;;;-2.90;99.90;;;-1.63;100.00;98861.56;4938154;29;20479;-76
2024/01/17 07:05:45;;;;;;;15.60;6.70;;;-3.00;99.90;;;-1.76;100.00;98859.50;4945762;28;20114;-75
2024/01/17 07:08:11;;;;;;;15.55;7.25;;;-2.90;99.90;;;-1.91;100.00;98838.06;4945026;29;20415;-76
2024/01/17 07:10:38;;;;;;;13.07;6.50;;;-2.90;99.90;;;-1.65;100.00;98842.19;4948173;29;20067;-75
2024/01/17 07:13:04;;;;;;;18.15;8.20;;;-2.80;99.90;;;-1.48;100.00;98839.38;4942122;29;20092;-76
2024/01/17 07:15:31;;;;;;;21.63;7.47;;;-2.70;99.90;;;-1.50;100.00;98833.38;4949993;29;20055;-77
2024/01/17 07:17:58;;;;;;;20.00;7.30;;;-2.70;99.90;;;-1.29;100.00;98829.16;4950737;28;20031;-77
2024/01/17 07:20:24;;;;;;;18.20;6.95;;;-2.70;99.90;;;-1.21;100.00;98823.69;4950835;28;20046;-77
2024/01/17 07:22:50;;;;;;;12.07;6.45;;;-2.70;99.90;;;-1.60;100.00;98818.41;4945857;29;20091;-77
2024/01/17 07:25:16;;;;;;;15.18;6.93;;;-2.70;99.90;;;-1.43;100.00;98828.13;4949563;28;20039;-77
2024/01/17 07:27:45;;;;;;;13.25;5.82;;;-2.60;99.90;;;-1.54;100.00;98818.69;4937707;28;20106;-77
2024/01/17 07:30:12;;;;;;;15.18;6.68;;;-2.50;99.90;;;-1.33;100.00;98810.78;4940387;29;20110;-77
2024/01/17 07:32:39;;;;;;;14.77;6.38;;;-2.40;99.90;;;-1.38;100.00;98804.31;4952421;28;20212;-77
2024/01/17 07:35:06;;;;;;;16.75;7.25;;;-2.40;99.90;;;-1.10;100.00;98803.66;4965122;28;20459;-75
2024/01/17 07:37:32;;;;;;;28.80;7.53;;;-2.40;99.90;;;-1.15;100.00;98801.53;4952583;29;20558;-75
2024/01/17 07:39:59;;;;;;;19.73;6.63;;;-2.40;99.90;;;-1.35;100.00;98803.94;4947903;28;20043;-76
2024/01/17 07:42:25;;;;;;;17.98;7.38;;;-2.40;99.90;;;-1.31;100.00;98789.19;4937392;29;20468;-76
2024/01/17 07:44:51;;;;;;;15.60;7.15;;;-2.40;99.90;;;-1.19;100.00;98789.53;4948904;29;20043;-76
2024/01/17 07:47:16;;;;;;;19.00;7.07;;;-2.30;99.90;;;-1.12;100.00;98800.34;4949396;28;20463;-77
2024/01/17 07:49:44;;;;;;;15.77;6.20;;;-2.40;99.90;;;-1.09;100.00;98798.09;4950934;28;20035;-76
2024/01/17 07:52:10;;;;;;;15.95;6.68;;;-2.30;99.90;;;-1.34;100.00;98800.25;4948021;29;20031;-76
2024/01/17 07:54:36;;;;;;;15.88;6.75;;;-2.30;99.90;;;-1.24;100.00;98784.75;4963727;28;20062;-76
2024/01/17 07:57:03;;;;;;;14.82;6.78;;;-2.30;99.90;;;-1.38;100.00;98786.41;4964493;28;20043;-76
2024/01/17 07:59:29;;;;;;;14.93;6.90;;;-2.30;99.90;;;-1.42;100.00;98779.75;4950054;29;20098;-77
2024/01/17 08:01:55;;;;;;;15.95;6.95;;;-2.30;99.90;;;-1.31;100.00;98773.97;4948593;29;20043;-77
2024/01/17 08:04:23;;;;;;;13.52;7.10;;;-2.30;99.90;;;-1.45;100.00;98756.06;4949088;28;20031;-76
2024/01/17 08:06:49;;;;;;;19.85;6.68;;;-2.30;99.90;;;-1.25;100.00;98772.38;4951067;28;20509;-77
2024/01/17 08:09:20;;;;;;;16.85;6.60;;;-2.30;99.90;;;-1.39;100.00;98762.53;4949272;28;20111;-77
2024/01/17 08:11:59;;;;;;;16.05;6.60;;;-2.30;99.90;;;-1.17;100.00;98771.44;4951770;28;20526;-77
2024/01/17 08:14:25;;;;;;;16.60;6.43;;;-2.30;99.90;;;-1.23;100.00;98764.16;4950527;29;20499;-75
2024/01/17 08:16:51;;;;;;;11.88;5.63;;;-2.20;99.90;;;-1.32;100.00;98745.56;4949339;28;20095;-75
2024/01/17 08:19:17;;;;;;;16.73;6.53;;;-2.20;99.90;;;-1.18;100.00;98761.75;4949806;29;20042;-75
2024/01/17 08:21:44;;;;;;;15.00;6.50;;;-2.20;99.90;;;-1.20;100.00;98751.22;4950271;29;20043;-75
2024/01/17 08:24:10;;;;;;;16.35;7.50;;;-2.20;99.90;;;-1.13;100.00;98751.31;4932803;29;20058;-75
2024/01/17 08:26:39;;;;;;;17.25;6.20;;;-2.20;99.90;;;-1.18;100.00;98743.03;4949474;28;20039;-76
2024/01/17 08:29:05;;;;;;;17.58;6.55;;;-2.10;99.90;;;-1.02;100.00;98745.50;4950120;28;20039;-76
2024/01/17 08:31:30;;;;;;;13.65;6.28;;;-2.10;99.90;;;-0.92;100.00;98734.50;4949971;28;20039;-77
2024/01/17 08:33:57;;;;;;;13.35;5.43;;;-2.00;99.90;;;-0.93;100.00;98734.66;4949298;28;20031;-77
2024/01/17 08:36:27;;;;;;;19.20;5.60;;;-1.90;99.90;;;-0.86;100.00;98722.19;4948950;28;20392;-77
2024/01/17 08:38:53;;;;;;;10.23;5.32;;;-1.90;99.90;;;-0.54;100.00;98709.28;4963695;28;20440;-77
2024/01/17 08:41:19;;;;;;;13.73;6.38;;;-1.80;99.90;;;-0.33;100.00;98707.63;4950384;28;20042;-77
2024/01/17 08:43:45;;;;;;;16.33;6.28;;;-1.70;99.90;;;-0.23;100.00;98694.75;4948343;28;20035;-77
2024/01/17 08:46:14;;;;;;;10.57;5.50;;;-1.60;99.90;;;-0.35;100.00;98689.06;4947883;28;20087;-77
2024/01/17 08:48:41;;;;;;;12.02;5.60;;;-1.60;99.90;;;-0.33;100.00;98696.91;4948780;28;20049;-78
2024/01/17 08:51:08;;;;;;;11.85;5.85;;;-1.50;99.90;;;-0.37;100.00;98687.59;4950386;28;20035;-76
2024/01/17 08:53:37;;;;;;;11.82;5.32;;;-1.50;99.90;;;-0.29;100.00;98679.41;4950162;28;20075;-79
2024/01/17 08:56:05;;;;;;;11.45;5.55;;;-1.40;99.90;;;-0.51;100.00;98674.13;4948654;29;20039;-79
2024/01/17 08:58:34;;;;;;;12.60;5.95;;;-1.40;99.90;;;-0.42;100.00;98664.06;4949197;29;20031;-79
2024/01/17 09:01:01;;;;;;;13.68;5.90;;;-1.30;99.90;;;-0.36;100.00;98659.78;4949137;28;20120;-79
2024/01/17 09:03:29;;;;;;;12.77;5.53;;;-1.30;99.90;;;-0.49;100.00;98657.81;4946041;29;20126;-79
2024/01/17 09:05:55;;;;;;;13.18;5.50;;;-1.30;99.90;;;-0.36;100.00;98657.94;4951302;28;20066;-79
2024/01/17 09:08:21;;;;;;;9.65;5.18;;;-1.30;99.90;;;-0.47;100.00;98634.34;4949799;28;20038;-78
2024/01/17 09:10:47;;;;;;;13.80;5.75;;;-1.30;99.90;;;-0.73;100.00;98633.94;4965986;28;20027;-78
2024/01/17 09:13:13;;;;;;;11.52;5.32;;;-1.30;99.90;;;-0.52;100.00;98632.28;4948965;28;20063;-78
2024/01/17 09:15:39;;;;;;;12.80;6.22;;;-1.30;99.90;;;-0.52;100.00;98618.03;4949633;28;20035;-78
2024/01/17 09:18:07;;;;;;;9.75;4.47;;;-1.30;99.90;;;-0.58;100.00;98622.31;4949776;29;20093;-80
2024/01/17 09:20:33;;;;;;;14.80;5.80;;;-1.20;99.90;;;-0.36;100.00;98620.44;4948871;28;20102;-80
2024/01/17 09:22:59;;;;;;;10.10;5.00;;;-1.20;99.90;;;-0.22;100.00;98613.31;4949884;28;20475;-79
2024/01/17 09:25:24;;;;;;;12.57;5.32;;;-1.10;99.90;;;-0.02;100.00;98612.56;4948982;28;20040;-79
2024/01/17 09:27:50;;;;;;;13.18;5.18;;;-1.00;99.90;;;0.12;100.00;98617.00;4950577;28;20043;-79
2024/01/17 09:30:16;;;;;;;11.93;5.25;;;-0.90;99.90;;;0.37;100.00;98611.13;4947698;29;20039;-78
2024/01/17 09:32:44;;;;;;;10.48;5.00;;;-0.80;99.90;;;0.13;100.00;98607.91;4943315;28;20510;-80
2024/01/17 09:35:10;;;;;;;11.45;5.53;;;-0.80;99.90;;;-0.15;100.00;98600.75;4945415;28;20044;-80
2024/01/17 09:37:36;;;;;;;10.48;5.22;;;-0.90;99.90;;;0.05;100.00;98605.41;4946259;29;20119;-79
2024/01/17 09:40:05;;;;;;;11.60;5.10;;;-0.80;99.90;;;0.23;100.00;98602.19;4942871;28;20475;-80
2024/01/17 09:42:33;;;;;;;9.98;5.40;;;-0.80;99.90;;;0.11;100.00;98599.25;4945727;28;20042;-78
2024/01/17 09:45:01;;;;;;;11.73;4.97;;;-0.70;99.90;;;-0.14;100.00;98585.50;4945547;28;20559;-80
2024/01/17 09:47:27;;;;;;;11.40;5.43;;;-0.80;99.90;;;0.14;100.00;98582.75;4950220;28;20050;-79
2024/01/17 09:49:52;;;;;;;15.18;5.85;;;-0.70;99.90;;;0.07;100.00;98589.09;4942794;29;20626;-79
2024/01/17 09:52:22;;;;;;;13.55;5.75;;;-0.70;99.90;;;-0.10;100.00;98584.09;4940090;28;20472;-79
2024/01/17 09:54:52;;;;;;;11.25;5.47;;;-0.70;99.90;;;0.31;100.00;98578.91;4945456;28;20060;-81
2024/01/17 09:57:23;;;;;;;13.52;6.03;;;-0.70;99.90;;;-0.07;100.00;98577.50;4942064;29;20126;-81
2024/01/17 10:00:06;;;;;;;12.18;5.60;;;-0.70;99.90;;;0.20;100.00;98573.09;4942472;28;20047;-82
2024/01/17 10:02:36;;;;;;;10.98;5.35;;;-0.70;99.90;;;0.26;100.00;98579.50;4947326;28;20323;-82
2024/01/17 10:05:05;;;;;;;13.75;5.68;;;-0.60;99.90;;;0.12;100.00;98551.78;4941637;28;20126;-83